Terminal Aerodrome Forecast
Issued by NWS

Home | Current Version | Previous Version | Text Only | Print | Product List | Glossary Off
Versions: 1 2 3 4 5 6 7 8 9 10 11 12 13 14 15 16 17 18 19 20 21

000
FTUS43 KICT 290520
TAFHUT
TAF
KHUT 290520Z 2906/3006 VRB05KT P6SM OVC080
     FM290800 18010KT P6SM BKN120
     FM291300 19010KT P6SM SCT020 BKN035
     FM291600 19015KT P6SM BKN080
     FM300100 20004KT P6SM BKN120=

USA.gov is the U.S. government's official web portal to all federal, state and local government web resources and services.